Decoded Metar for GMFO (OUJDA in MOROCCO) (IATA:OUD) | Meteo·Mobile Aviation Weather
aviador You're here:

GMFO Decoded Metar

OUJDA in MOROCCO
Report Time2018-08-20 01:00:00
UTC Time2018-08-20 01:26:24
Flight Rules vfr VFR
WindVRB at 02 kt
Visibility9999 m
Phenomena:N/A
Clouds:Few 030 Hf
Scattered 130 Hf
Expected CloudBase > 2,000 ft AGL from Temp-Dew spread
CeilingNone
Temp21°C (ISA +9)
Dew Point16°C (73% RH)
QNH1018 hPa
Density Alt2,677 ft
Elevation1,542 ft
Report Wrong Elevation
Raw Report
GMFO 200100Z VRB02KT 9999 FEW030 SCT130 21/16 Q1018 NOSIG=

Extra information for GMFO:More info

Metar Taf Metar & Taf Last 4 Metars F.Rules Stats Wind Profile Meteogram Temp Stats Airport Information Weather charts Add Link Nearby VenuesMetar ALERT Operation Metar Decoded Social comments